createdAt,value
2022-09-21T00:00:32.425Z,101240.63
2022-09-21T00:05:26.062Z,101184.72
2022-09-21T00:10:20.258Z,101216.41
2022-09-21T00:15:14.606Z,101241.03
2022-09-21T00:20:09.886Z,101220.66
2022-09-21T00:25:03.801Z,101212.22
2022-09-21T00:29:57.082Z,101242.84
2022-09-21T00:34:50.290Z,101250.50
2022-09-21T00:39:44.774Z,101250.34
2022-09-21T00:44:38.173Z,101212.19
2022-09-21T00:49:34.386Z,101197.91
2022-09-21T00:54:32.667Z,101233.88
2022-09-21T00:59:30.253Z,101203.44
2022-09-21T01:04:24.308Z,101210.63
2022-09-21T01:09:19.361Z,101242.75
2022-09-21T01:14:26.753Z,101219.91
2022-09-21T01:19:41.659Z,101247.97
2022-09-21T01:24:51.048Z,101247.97
2022-09-21T01:29:51.331Z,101236.94
2022-09-21T01:34:50.741Z,101227.00
2022-09-21T01:39:47.187Z,101253.75
2022-09-21T01:44:42.359Z,101221.72
2022-09-21T01:49:40.538Z,101069.88
2022-09-21T01:54:38.984Z,101262.28
2022-09-21T01:59:39.331Z,101201.97
2022-09-21T02:04:32.449Z,101252.53
2022-09-21T02:09:27.010Z,101251.59
2022-09-21T02:14:24.081Z,101214.47
2022-09-21T02:19:23.839Z,101251.75
2022-09-21T02:24:25.479Z,101256.44
2022-09-21T02:29:26.993Z,101258.50
2022-09-21T02:34:25.871Z,101263.56
2022-09-21T02:39:23.042Z,101219.53
2022-09-21T02:44:23.683Z,101242.00
2022-09-21T02:49:21.026Z,101221.25
2022-09-21T02:54:18.504Z,101257.59
2022-09-21T02:59:12.061Z,101249.69
2022-09-21T03:04:06.680Z,101251.94
2022-09-21T03:08:59.823Z,101175.38
2022-09-21T03:13:53.202Z,101247.44
2022-09-21T03:18:46.303Z,101254.03
2022-09-21T03:23:41.213Z,101152.53
2022-09-21T03:28:34.392Z,101262.56
2022-09-21T03:33:27.580Z,101266.94
2022-09-21T03:38:24.318Z,101246.09
2022-09-21T03:43:19.402Z,101181.91
2022-09-21T03:48:13.692Z,101247.47
2022-09-21T03:53:06.913Z,101261.31
2022-09-21T03:58:00.659Z,101282.00
2022-09-21T04:02:55.765Z,101280.59
2022-09-21T04:07:49.828Z,101275.22
2022-09-21T04:12:44.131Z,101280.06
2022-09-21T04:17:37.309Z,101229.94
2022-09-21T04:22:31.863Z,101195.47
2022-09-21T04:27:25.262Z,101252.94
2022-09-21T04:32:18.449Z,101308.66
2022-09-21T04:37:12.019Z,101277.44
2022-09-21T04:42:09.404Z,101305.44
2022-09-21T04:47:02.639Z,101308.16
2022-09-21T04:51:55.880Z,101308.50
2022-09-21T04:56:48.985Z,101309.06
2022-09-21T05:01:43.585Z,101259.66
2022-09-21T05:06:36.733Z,101278.25
2022-09-21T05:11:29.979Z,101321.31
2022-09-21T05:16:23.183Z,101286.59
2022-09-21T05:21:17.706Z,101315.41
2022-09-21T05:26:10.925Z,101315.66
2022-09-21T05:31:18.046Z,101272.09
2022-09-21T05:36:29.959Z,101306.22
2022-09-21T05:41:23.703Z,101320.09
2022-09-21T05:46:21.780Z,101286.94
2022-09-21T05:51:30.982Z,101290.25
2022-09-21T05:56:35.299Z,101285.03
2022-09-21T06:01:42.057Z,101313.00
2022-09-21T06:06:36.590Z,101312.44
2022-09-21T06:11:29.725Z,101258.88
2022-09-21T06:16:22.904Z,101314.06
2022-09-21T06:21:16.221Z,101314.88
2022-09-21T06:26:10.799Z,101323.69
2022-09-21T06:31:04.083Z,101310.50
2022-09-21T06:35:59.195Z,101329.38
2022-09-21T06:40:53.025Z,101239.78
2022-09-21T06:45:54.458Z,101332.09
2022-09-21T06:50:47.896Z,101202.88
2022-09-21T06:55:41.086Z,101285.94
2022-09-21T07:00:34.444Z,101295.47
2022-09-21T07:05:29.092Z,101338.78
2022-09-21T07:10:22.604Z,101347.88
2022-09-21T07:15:15.890Z,101348.50
2022-09-21T07:20:09.862Z,101306.84
2022-09-21T07:25:05.685Z,101342.91
2022-09-21T07:29:58.907Z,101351.72
2022-09-21T07:34:56.566Z,101329.63
2022-09-21T07:39:49.861Z,101308.66
2022-09-21T07:45:03.358Z,101330.66
2022-09-21T07:50:06.896Z,101305.03
2022-09-21T07:55:00.127Z,101175.50
2022-09-21T07:59:56.704Z,101338.38
2022-09-21T08:04:49.921Z,101336.91
2022-09-21T08:09:43.331Z,101328.94
2022-09-21T08:15:06.476Z,101192.78
2022-09-21T08:20:00.302Z,101330.50
2022-09-21T08:24:57.197Z,101223.97
2022-09-21T08:29:50.611Z,101295.34
2022-09-21T08:34:45.285Z,101215.16
2022-09-21T08:39:39.106Z,101282.56
2022-09-21T08:44:38.501Z,101305.22
2022-09-21T08:50:05.999Z,101291.41
2022-09-21T08:55:08.807Z,101142.38
2022-09-21T09:00:03.346Z,101243.44
2022-09-21T09:05:07.860Z,101288.53
2022-09-21T09:10:17.434Z,101285.22
2022-09-21T09:15:41.297Z,101239.31
2022-09-21T09:20:39.263Z,101259.50
2022-09-21T09:25:39.286Z,101158.66
2022-09-21T09:30:36.310Z,101245.81
2022-09-21T09:35:40.241Z,101269.69
2022-09-21T09:40:51.499Z,101221.03
2022-09-21T09:45:52.811Z,101267.22
2022-09-21T09:50:47.895Z,101259.53
2022-09-21T09:55:46.505Z,101251.88
2022-09-21T10:00:41.214Z,101247.50
2022-09-21T10:05:38.369Z,101238.56
2022-09-21T10:10:35.313Z,101241.81
2022-09-21T10:15:45.116Z,101192.50
2022-09-21T10:20:38.786Z,101163.13
2022-09-21T10:25:34.794Z,101189.59
2022-09-21T10:30:38.769Z,101264.16
2022-09-21T10:35:32.081Z,101250.03
2022-09-21T10:40:28.354Z,101227.53
2022-09-21T10:45:24.100Z,101195.75
2022-09-21T10:50:28.644Z,101132.97
2022-09-21T10:55:24.689Z,101187.38
2022-09-21T11:00:35.734Z,101220.47
2022-09-21T11:05:34.406Z,101219.59
2022-09-21T11:10:35.103Z,101179.34
2022-09-21T11:15:41.501Z,101196.59
2022-09-21T11:20:43.454Z,101181.31
2022-09-21T11:25:45.226Z,101178.69
2022-09-21T11:30:53.912Z,101177.38
2022-09-21T11:36:03.940Z,101175.69
2022-09-21T11:41:15.303Z,101166.88
2022-09-21T11:46:21.385Z,101145.81
2022-09-21T11:51:38.549Z,101105.44
2022-09-21T11:56:45.674Z,101134.41
2022-09-21T12:01:58.380Z,101114.00
2022-09-21T12:07:08.254Z,101147.72
2022-09-21T12:12:10.531Z,101093.84
2022-09-21T12:17:10.960Z,100983.69
2022-09-21T12:22:10.853Z,101163.56
2022-09-21T12:27:06.292Z,101158.78
2022-09-21T12:32:06.031Z,101114.00
2022-09-21T12:37:05.616Z,101157.84
2022-09-21T12:42:06.272Z,101131.66
2022-09-21T12:47:10.308Z,101099.31
2022-09-21T12:52:07.226Z,101127.28
2022-09-21T12:57:38.211Z,101139.59
2022-09-21T13:02:35.205Z,101120.75
2022-09-21T13:08:04.568Z,101145.13
2022-09-21T13:13:02.303Z,101094.03
2022-09-21T13:18:06.168Z,101134.66
2022-09-21T13:23:02.483Z,101104.00
2022-09-21T13:28:19.914Z,101137.28
2022-09-21T13:33:32.436Z,101116.38
2022-09-21T13:38:26.805Z,101131.03
2022-09-21T13:43:26.777Z,101155.47
2022-09-21T13:48:27.659Z,101153.59
2022-09-21T13:53:23.513Z,101160.34
2022-09-21T13:58:22.531Z,101159.88
2022-09-21T14:03:31.031Z,101132.75
2022-09-21T14:08:33.986Z,101157.66
2022-09-21T14:13:36.059Z,101123.22
2022-09-21T14:18:41.694Z,101110.94
2022-09-21T14:23:35.431Z,101115.66
2022-09-21T14:28:36.641Z,101147.38
2022-09-21T14:33:35.387Z,101069.69
2022-09-21T14:38:32.912Z,101147.31
2022-09-21T14:43:29.096Z,101156.19
2022-09-21T14:48:30.719Z,101118.19
2022-09-21T14:53:43.147Z,101125.25
2022-09-21T14:58:52.248Z,101154.97
2022-09-21T15:04:09.820Z,101139.19
2022-09-21T15:09:40.974Z,101154.13
2022-09-21T15:14:38.566Z,101166.41
2022-09-21T15:19:38.665Z,101121.13
2022-09-21T15:24:34.397Z,101169.97
2022-09-21T15:29:36.480Z,101137.09
2022-09-21T15:34:30.079Z,101126.69
2022-09-21T15:39:28.652Z,101155.41
2022-09-21T15:44:26.553Z,101178.13
2022-09-21T15:49:25.015Z,101144.00
2022-09-21T15:54:30.157Z,101127.22
2022-09-21T15:59:24.926Z,101156.28
2022-09-21T16:04:49.526Z,101197.75
2022-09-21T16:09:45.131Z,101132.03
2022-09-21T16:15:04.100Z,101194.69
2022-09-21T16:20:19.761Z,101205.16
2022-09-21T16:25:34.718Z,101203.72
2022-09-21T16:31:22.940Z,101193.94
2022-09-21T16:36:42.540Z,101123.28
2022-09-21T16:41:41.497Z,101207.22
2022-09-21T16:46:36.361Z,101195.22
2022-09-21T16:51:29.908Z,101242.72
2022-09-21T16:56:23.097Z,101155.81
2022-09-21T17:01:18.876Z,101165.41
2022-09-21T17:06:17.439Z,101294.44
2022-09-21T17:11:10.688Z,101227.09
2022-09-21T17:16:04.050Z,101316.44
2022-09-21T17:20:57.238Z,101217.66
2022-09-21T17:25:52.657Z,101287.69
2022-09-21T17:30:46.592Z,101292.38
2022-09-21T17:35:41.947Z,101242.47
2022-09-21T17:40:36.185Z,101287.44
2022-09-21T17:45:38.806Z,101271.00
2022-09-21T17:50:32.674Z,101296.31
2022-09-21T17:55:26.569Z,101305.78
2022-09-21T18:00:27.319Z,101311.13
2022-09-21T18:05:25.310Z,101319.09
2022-09-21T18:10:19.594Z,101296.28
2022-09-21T18:15:20.843Z,101200.16
2022-09-21T18:20:35.527Z,101281.59
2022-09-21T18:25:33.384Z,101311.63
2022-09-21T18:30:27.064Z,101319.22
2022-09-21T18:35:45.804Z,101340.69
2022-09-21T18:40:44.895Z,101288.19
2022-09-21T18:45:43.797Z,101161.50
2022-09-21T18:50:45.974Z,101343.16
2022-09-21T18:55:41.303Z,101339.25
2022-09-21T19:00:35.704Z,101345.66
2022-09-21T19:05:29.358Z,101341.53
2022-09-21T19:10:32.842Z,101343.56
2022-09-21T19:15:56.008Z,101339.47
2022-09-21T19:20:57.261Z,101299.72
2022-09-21T19:25:53.603Z,101286.72
2022-09-21T19:30:53.479Z,101322.50
2022-09-21T19:35:48.502Z,101289.34
2022-09-21T19:40:44.698Z,101327.84
2022-09-21T19:45:49.033Z,101239.41
2022-09-21T19:50:48.281Z,101294.09
2022-09-21T19:56:00.245Z,101265.53
2022-09-21T20:00:55.263Z,101321.63
2022-09-21T20:05:56.407Z,101317.13
2022-09-21T20:10:57.838Z,101322.97
2022-09-21T20:16:00.871Z,101317.22
2022-09-21T20:20:57.447Z,101294.94
2022-09-21T20:25:54.723Z,101326.22
2022-09-21T20:30:48.038Z,101316.59
2022-09-21T20:35:43.309Z,101322.88
2022-09-21T20:40:38.290Z,101265.88
2022-09-21T20:45:32.366Z,101306.25
2022-09-21T20:50:30.496Z,101269.13
2022-09-21T20:55:24.415Z,101328.75
2022-09-21T21:00:19.495Z,101330.72
2022-09-21T21:05:12.760Z,101287.31
2022-09-21T21:10:06.731Z,101296.00
2022-09-21T21:14:59.880Z,101337.09
2022-09-21T21:19:54.415Z,101305.59
2022-09-21T21:24:48.072Z,101336.78
2022-09-21T21:29:41.294Z,101304.56
2022-09-21T21:34:34.503Z,101278.53
2022-09-21T21:39:28.963Z,101336.03
2022-09-21T21:44:22.200Z,101319.63
2022-09-21T21:49:15.621Z,101334.78
2022-09-21T21:54:08.799Z,101327.75
2022-09-21T21:59:03.445Z,101302.56
2022-09-21T22:03:58.918Z,101276.50
2022-09-21T22:08:53.159Z,101325.16
2022-09-21T22:13:47.096Z,101333.97
2022-09-21T22:18:42.182Z,101328.94
2022-09-21T22:23:35.734Z,101327.59
2022-09-21T22:28:28.818Z,101339.59
2022-09-21T22:33:21.889Z,101320.34
2022-09-21T22:38:16.379Z,101340.13
2022-09-21T22:43:09.458Z,101308.69
2022-09-21T22:48:03.009Z,101339.25
2022-09-21T22:52:56.371Z,101336.31
2022-09-21T22:57:50.863Z,101343.03
2022-09-21T23:02:44.923Z,101288.94
2022-09-21T23:07:38.412Z,101312.66
2022-09-21T23:12:31.467Z,101304.19
2022-09-21T23:17:25.835Z,101334.97
2022-09-21T23:22:19.941Z,101330.78
2022-09-21T23:27:12.993Z,101310.69
2022-09-21T23:32:06.559Z,101324.84
2022-09-21T23:37:01.049Z,101323.53
2022-09-21T23:41:54.355Z,101306.25
2022-09-21T23:46:47.496Z,101323.84
2022-09-21T23:51:40.949Z,101329.91
2022-09-21T23:56:35.615Z,101309.28
